createdAt,value
2023-02-24T00:21:30.476Z,17
2023-02-24T00:51:40.542Z,16
2023-02-24T01:21:51.695Z,16
2023-02-24T01:52:02.629Z,16
2023-02-24T02:52:25.736Z,16
2023-02-24T03:23:45.166Z,14
2023-02-24T03:53:42.658Z,14
2023-02-24T04:25:01.907Z,14
2023-02-24T04:55:00.362Z,15
2023-02-24T05:25:05.522Z,15
2023-02-24T05:56:20.108Z,16
2023-02-24T06:29:56.974Z,16
2023-02-24T06:59:51.759Z,16
2023-02-24T07:31:04.487Z,16
2023-02-24T08:01:03.314Z,16
2023-02-24T08:32:25.210Z,16
2023-02-24T09:04:34.577Z,16
2023-02-24T09:34:31.688Z,16
2023-02-24T10:05:47.911Z,16
2023-02-24T10:35:45.275Z,26
2023-02-24T11:05:52.153Z,25
2023-02-24T11:36:02.145Z,24
2023-02-24T12:06:09.330Z,23
2023-02-24T12:36:19.099Z,23
2023-02-24T13:10:02.399Z,22
2023-02-24T14:11:12.576Z,22
2023-02-24T14:42:26.582Z,20
2023-02-24T15:12:23.080Z,20
2023-02-24T15:52:15.986Z,19
2023-02-24T16:22:03.600Z,20
2023-02-24T17:05:41.014Z,20
2023-02-24T17:41:03.040Z,19
2023-02-24T18:10:56.199Z,19
2023-02-24T18:41:10.566Z,19
2023-02-24T19:11:20.430Z,18
2023-02-24T19:46:58.813Z,17
2023-02-24T20:16:48.437Z,16
2023-02-24T20:48:06.854Z,15
2023-02-24T21:48:15.187Z,15
2023-02-24T22:19:34.211Z,13
2023-02-24T22:49:35.618Z,13
2023-02-24T23:19:47.530Z,13
2023-02-24T23:49:52.573Z,13
